Time;durP1;ratioP1;P1;durP2;ratioP2;P2;SDS_P1;SDS_P2;PMS_P1;PMS_P2;Temp;Humidity;BMP_temperature;BMP_pressure;BME280_temperature;BME280_humidity;BME280_pressure;Samples;Min_cycle;Max_cycle;Signal;HPM_P1;HPM_P2
2023/08/02 00:01:48;;;;;;;6.50;1.75;;;;;;;17.89;74.55;100074.66;7390313;19;20014;-60
2023/08/02 00:04:15;;;;;;;6.03;1.98;;;;;;;17.87;74.70;100080.22;7391125;19;20015;-61
2023/08/02 00:06:42;;;;;;;7.30;1.73;;;;;;;17.71;74.90;100078.44;7390572;19;20029;-59
2023/08/02 00:09:10;;;;;;;4.68;1.83;;;;;;;17.70;75.08;100078.59;7391914;19;20022;-60
2023/08/02 00:11:37;;;;;;;6.22;1.90;;;;;;;17.72;75.33;100082.78;7391742;19;20026;-59
2023/08/02 00:14:04;;;;;;;4.65;2.00;;;;;;;17.73;75.05;100079.06;7392757;19;20023;-59
2023/08/02 00:16:32;;;;;;;5.60;1.77;;;;;;;17.73;75.07;100088.97;7390051;19;20006;-59
2023/08/02 00:18:59;;;;;;;6.20;1.98;;;;;;;17.71;75.38;100088.31;7392834;19;20022;-58
2023/08/02 00:21:26;;;;;;;6.82;1.90;;;;;;;17.76;75.05;100076.09;7393769;19;20130;-57
2023/08/02 00:23:53;;;;;;;6.88;1.95;;;;;;;17.76;75.16;100080.59;7392973;19;20077;-58
2023/08/02 00:26:19;;;;;;;6.53;1.85;;;;;;;17.75;75.01;100079.78;7393862;19;20468;-59
2023/08/02 00:28:46;;;;;;;5.32;1.80;;;;;;;17.81;75.08;100070.19;7393317;19;20018;-58
2023/08/02 00:31:13;;;;;;;7.05;1.98;;;;;;;17.64;75.38;100072.13;7394495;19;20022;-59
2023/08/02 00:33:40;;;;;;;7.30;2.05;;;;;;;17.62;75.83;100074.13;7391660;19;20396;-58
2023/08/02 00:36:08;;;;;;;6.07;1.90;;;;;;;17.63;75.55;100067.78;7390371;19;20492;-58
2023/08/02 00:38:34;;;;;;;5.45;2.10;;;;;;;17.57;75.96;100071.13;7393461;19;20032;-59
2023/08/02 00:41:05;;;;;;;4.72;1.80;;;;;;;17.63;75.62;100075.81;7391254;19;20011;-58
2023/08/02 00:43:44;;;;;;;5.22;1.92;;;;;;;17.61;75.84;100064.41;7391955;19;20062;-61
2023/08/02 00:46:17;;;;;;;5.40;1.90;;;;;;;17.64;75.54;100066.75;7393661;19;20019;-59
2023/08/02 00:48:46;;;;;;;5.63;1.90;;;;;;;17.65;75.74;100071.09;7389116;19;20019;-60
2023/08/02 00:51:16;;;;;;;7.97;2.22;;;;;;;17.70;75.54;100071.38;7391384;19;20078;-61
2023/08/02 00:53:44;;;;;;;7.20;2.25;;;;;;;17.66;75.64;100067.41;7391571;19;20019;-60
2023/08/02 00:56:14;;;;;;;5.47;1.90;;;;;;;17.68;75.62;100065.38;7390437;19;20022;-60
2023/08/02 00:58:41;;;;;;;5.55;2.00;;;;;;;17.70;75.48;100074.06;7391367;19;20019;-60
2023/08/02 01:01:08;;;;;;;9.30;2.25;;;;;;;17.77;75.30;100076.91;7389979;19;20018;-61
2023/08/02 01:03:40;;;;;;;6.63;2.03;;;;;;;17.86;75.33;100077.69;7388994;19;20018;-61
2023/08/02 01:06:16;;;;;;;6.65;2.08;;;;;;;17.80;75.26;100065.03;7389384;19;20015;-61
2023/08/02 01:08:49;;;;;;;8.05;2.10;;;;;;;17.71;75.89;100066.91;7389824;19;20014;-60
2023/08/02 01:11:23;;;;;;;6.63;2.15;;;;;;;17.63;75.83;100070.44;7391215;19;20495;-58
2023/08/02 01:13:53;;;;;;;7.55;2.38;;;;;;;17.58;76.12;100064.75;7393024;19;20006;-59
2023/08/02 01:16:20;;;;;;;4.93;1.95;;;;;;;17.57;76.09;100067.63;7392282;19;20018;-57
2023/08/02 01:18:47;;;;;;;5.70;2.13;;;;;;;17.60;76.10;100078.00;7393196;19;20021;-60
2023/08/02 01:21:13;;;;;;;6.85;2.25;;;;;;;17.62;76.00;100068.75;7392071;19;20003;-61
2023/08/02 01:23:41;;;;;;;9.75;2.22;;;;;;;17.48;76.51;100061.50;7391037;19;20484;-59
2023/08/02 01:26:08;;;;;;;6.78;2.13;;;;;;;17.52;76.70;100060.13;7391766;19;20024;-60
2023/08/02 01:28:42;;;;;;;4.25;1.95;;;;;;;17.61;75.96;100063.59;7391324;19;20015;-60
2023/08/02 01:31:12;;;;;;;6.47;1.98;;;;;;;17.58;76.32;100064.75;7392557;19;20014;-58
2023/08/02 01:33:46;;;;;;;6.68;2.42;;;;;;;17.63;76.13;100066.91;7389185;19;20014;-58
2023/08/02 01:36:13;;;;;;;7.82;2.35;;;;;;;17.62;75.85;100073.28;7389332;19;20602;-59
2023/08/02 01:38:40;;;;;;;10.15;2.80;;;;;;;17.63;75.72;100059.75;7391572;19;20019;-59
2023/08/02 01:41:07;;;;;;;7.75;2.53;;;;;;;17.58;75.97;100063.94;7394760;19;20014;-57
2023/08/02 01:43:35;;;;;;;9.77;2.58;;;;;;;17.62;75.84;100063.41;7394944;19;20053;-57
2023/08/02 01:46:02;;;;;;;7.75;2.20;;;;;;;17.67;75.73;100055.69;7397102;19;20010;-54
2023/08/02 01:48:30;;;;;;;7.07;2.42;;;;;;;17.64;75.74;100066.75;7397389;19;20028;-57
2023/08/02 01:50:57;;;;;;;6.68;2.13;;;;;;;17.67;75.64;100068.25;7399257;19;20022;-57
2023/08/02 01:53:24;;;;;;;5.70;2.17;;;;;;;17.73;75.21;100051.47;7397030;19;20395;-58
2023/08/02 01:55:52;;;;;;;7.53;2.20;;;;;;;17.81;75.20;100051.44;7398852;19;20103;-58
2023/08/02 01:58:19;;;;;;;8.88;2.78;;;;;;;17.80;75.17;100054.31;7397053;19;20011;-58
2023/08/02 02:00:46;;;;;;;9.45;3.30;;;;;;;17.67;75.59;100044.16;7398439;19;20010;-57
2023/08/02 02:03:14;;;;;;;7.97;3.38;;;;;;;17.68;75.59;100043.97;7395665;19;20081;-56
2023/08/02 02:05:51;;;;;;;10.68;3.22;;;;;;;17.75;75.62;100044.13;7398209;19;20034;-60
2023/08/02 02:08:19;;;;;;;6.57;2.60;;;;;;;17.70;75.27;100049.97;7399384;19;20014;-55
2023/08/02 02:10:54;;;;;;;8.15;2.40;;;;;;;17.65;75.98;100060.38;7399434;19;20476;-57
2023/08/02 02:13:24;;;;;;;9.10;2.17;;;;;;;17.68;75.92;100052.00;7398302;19;20032;-57
2023/08/02 02:15:52;;;;;;;5.03;2.28;;;;;;;17.73;75.48;100054.16;7398147;19;20021;-59
2023/08/02 02:18:19;;;;;;;7.07;2.22;;;;;;;17.72;75.56;100052.47;7395725;19;20022;-58
2023/08/02 02:20:46;;;;;;;6.88;1.98;;;;;;;17.67;75.65;100047.66;7394349;19;20036;-58
2023/08/02 02:23:14;;;;;;;6.05;2.15;;;;;;;17.72;75.54;100053.31;7393856;19;20031;-58
2023/08/02 02:25:41;;;;;;;8.40;2.95;;;;;;;17.64;75.72;100061.41;7394110;19;20025;-58
2023/08/02 02:28:08;;;;;;;7.50;2.70;;;;;;;17.63;75.93;100059.75;7396113;19;20093;-58
2023/08/02 02:30:36;;;;;;;7.80;2.45;;;;;;;17.64;75.80;100061.41;7396166;19;20019;-58
2023/08/02 02:33:04;;;;;;;6.80;2.22;;;;;;;17.65;75.78;100063.06;7393169;19;20100;-57
2023/08/02 02:35:32;;;;;;;6.00;2.15;;;;;;;17.61;75.92;100067.09;7395176;19;20086;-57
2023/08/02 02:37:59;;;;;;;10.95;2.72;;;;;;;17.61;76.39;100060.91;7395279;19;20022;-58
2023/08/02 02:40:26;;;;;;;6.97;2.25;;;;;;;17.64;76.30;100057.88;7394884;19;20023;-57
2023/08/02 02:42:53;;;;;;;7.32;2.60;;;;;;;17.58;75.96;100055.91;7391703;19;20018;-57
2023/08/02 02:45:21;;;;;;;6.78;2.90;;;;;;;17.54;76.38;100052.75;7395868;19;20015;-58
2023/08/02 02:47:48;;;;;;;6.68;2.45;;;;;;;17.50;76.17;100046.91;7395239;19;20011;-58
2023/08/02 02:50:16;;;;;;;8.68;2.72;;;;;;;17.51;76.64;100043.25;7395404;19;20018;-57
2023/08/02 02:52:43;;;;;;;8.13;2.63;;;;;;;17.55;76.22;100046.38;7392421;19;20019;-58
2023/08/02 02:55:10;;;;;;;10.07;2.65;;;;;;;17.39;76.71;100044.63;7394504;19;20391;-58
2023/08/02 02:57:38;;;;;;;5.32;2.35;;;;;;;17.48;76.61;100046.25;7395456;19;20398;-58
2023/08/02 03:00:06;;;;;;;6.63;2.40;;;;;;;17.48;76.66;100043.59;7393301;19;20018;-58
2023/08/02 03:02:33;;;;;;;6.65;2.42;;;;;;;17.47;76.19;100041.88;7393472;19;20015;-58
2023/08/02 03:05:01;;;;;;;9.13;2.65;;;;;;;17.53;76.37;100035.84;7393382;19;20038;-58
2023/08/02 03:07:27;;;;;;;8.07;2.55;;;;;;;17.53;76.35;100041.19;7394862;19;20026;-58
2023/08/02 03:09:55;;;;;;;6.38;2.45;;;;;;;17.59;76.22;100036.13;7394351;19;20030;-58
2023/08/02 03:12:22;;;;;;;9.65;2.45;;;;;;;17.58;76.13;100039.84;7393518;19;20397;-58
2023/08/02 03:14:50;;;;;;;9.30;3.33;;;;;;;17.59;76.34;100030.78;7394242;19;20018;-58
2023/08/02 03:17:17;;;;;;;9.20;2.70;;;;;;;17.58;76.16;100031.81;7390081;19;20022;-58
2023/08/02 03:19:44;;;;;;;7.45;2.80;;;;;;;17.60;76.01;100029.81;7392342;19;20023;-61
2023/08/02 03:22:12;;;;;;;11.73;3.05;;;;;;;17.55;76.16;100035.66;7388894;19;20023;-60
2023/08/02 03:24:39;;;;;;;9.13;2.83;;;;;;;17.47;76.22;100022.31;7391715;19;20018;-61
2023/08/02 03:27:06;;;;;;;11.48;2.90;;;;;;;17.56;75.97;100029.31;7390422;19;20018;-61
2023/08/02 03:29:34;;;;;;;6.68;2.50;;;;;;;17.61;76.10;100028.78;7392606;19;20049;-62
2023/08/02 03:32:01;;;;;;;8.90;3.00;;;;;;;17.62;75.82;100025.09;7392138;19;20047;-62
2023/08/02 03:34:28;;;;;;;9.93;2.75;;;;;;;17.64;75.88;100026.59;7394055;19;20022;-62
2023/08/02 03:36:56;;;;;;;8.85;2.88;;;;;;;17.63;75.60;100018.72;7392576;19;20512;-62
2023/08/02 03:39:27;;;;;;;10.90;2.95;;;;;;;17.56;75.89;100018.59;7393520;19;20066;-62
2023/08/02 03:41:55;;;;;;;11.73;3.17;;;;;;;17.59;76.01;100015.59;7392592;19;20015;-58
2023/08/02 03:44:22;;;;;;;9.40;3.08;;;;;;;17.54;75.78;100001.88;7393540;19;20023;-58
2023/08/02 03:46:50;;;;;;;9.27;3.03;;;;;;;17.52;75.75;100003.91;7396572;19;20010;-58
2023/08/02 03:49:17;;;;;;;11.50;3.50;;;;;;;17.51;75.89;100002.22;7392265;19;20096;-58
2023/08/02 03:51:46;;;;;;;10.27;2.85;;;;;;;17.50;75.73;99992.53;7391277;19;20018;-58
2023/08/02 03:54:14;;;;;;;10.05;2.80;;;;;;;17.51;75.83;99992.38;7392882;19;20022;-58
2023/08/02 03:56:41;;;;;;;8.07;2.55;;;;;;;17.58;75.52;99986.28;7392200;19;20018;-58
2023/08/02 03:59:10;;;;;;;9.13;2.92;;;;;;;17.50;75.93;99992.53;7392916;19;20459;-58
2023/08/02 04:01:37;;;;;;;11.57;2.65;;;;;;;17.52;76.12;99995.88;7390755;19;20027;-58
2023/08/02 04:04:04;;;;;;;8.60;2.38;;;;;;;17.50;76.14;99979.16;7390516;19;20087;-57
2023/08/02 04:06:32;;;;;;;8.02;2.63;;;;;;;17.44;76.71;99985.22;7391636;19;20480;-58
2023/08/02 04:08:59;;;;;;;8.23;3.10;;;;;;;17.45;76.41;99977.00;7392287;19;20026;-57
2023/08/02 04:11:27;;;;;;;12.07;3.00;;;;;;;17.51;76.10;99978.13;7392558;19;20018;-59
2023/08/02 04:13:54;;;;;;;8.10;2.80;;;;;;;17.58;75.41;99973.72;7392948;19;20087;-59
2023/08/02 04:16:21;;;;;;;7.63;2.90;;;;;;;17.55;75.86;99982.13;7391618;19;20488;-58
2023/08/02 04:18:48;;;;;;;10.32;2.90;;;;;;;17.58;75.61;99981.75;7391743;19;20077;-57
2023/08/02 04:21:19;;;;;;;13.45;2.90;;;;;;;17.66;75.22;99975.53;7391874;19;20018;-56
2023/08/02 04:23:50;;;;;;;10.05;2.58;;;;;;;17.69;75.05;99978.69;7390838;19;20040;-55
2023/08/02 04:26:17;;;;;;;10.95;2.92;;;;;;;17.68;74.99;99974.34;7390914;19;20022;-59
2023/08/02 04:28:45;;;;;;;12.80;3.30;;;;;;;17.67;74.86;99970.00;7392302;19;20018;-59
2023/08/02 04:31:14;;;;;;;9.00;2.78;;;;;;;17.71;74.55;99965.97;7391871;19;20487;-59
2023/08/02 04:33:41;;;;;;;9.30;2.40;;;;;;;17.75;74.46;99951.22;7389696;19;20039;-57
2023/08/02 04:36:08;;;;;;;8.98;2.65;;;;;;;17.74;74.96;99956.72;7390616;19;20018;-60
2023/08/02 04:38:34;;;;;;;10.73;2.90;;;;;;;17.76;74.72;99957.41;7391278;19;20022;-58
2023/08/02 04:41:01;;;;;;;9.75;2.58;;;;;;;17.86;74.47;99962.50;7391250;19;20010;-59
2023/08/02 04:43:28;;;;;;;9.98;3.08;;;;;;;17.88;74.57;99965.84;7389989;19;20023;-58
2023/08/02 04:45:55;;;;;;;7.90;2.88;;;;;;;17.84;74.61;99968.06;7392805;19;20464;-58
2023/08/02 04:48:22;;;;;;;9.38;2.85;;;;;;;17.89;74.00;99964.84;7391723;19;20029;-63
2023/08/02 04:50:49;;;;;;;11.45;2.75;;;;;;;17.97;73.75;99970.97;7390366;19;20043;-61
2023/08/02 04:53:16;;;;;;;11.40;2.83;;;;;;;17.96;73.86;99960.41;7389959;19;20024;-62
2023/08/02 04:55:44;;;;;;;9.23;2.47;;;;;;;17.98;73.93;99953.06;7390353;19;20025;-61
2023/08/02 04:58:11;;;;;;;12.65;3.00;;;;;;;18.04;73.62;99944.28;7390430;19;20035;-61
2023/08/02 05:00:38;;;;;;;10.07;2.70;;;;;;;18.05;73.28;99942.41;7391238;19;20079;-62
2023/08/02 05:03:05;;;;;;;7.57;2.42;;;;;;;18.11;72.84;99941.72;7388856;19;20492;-61
2023/08/02 05:05:32;;;;;;;12.93;3.13;;;;;;;18.07;72.99;99943.91;7390309;19;20038;-61
2023/08/02 05:08:00;;;;;;;9.25;2.83;;;;;;;18.03;73.25;99945.28;7389930;19;20047;-62
2023/08/02 05:10:27;;;;;;;10.45;3.00;;;;;;;17.96;73.31;99944.34;7390252;19;20035;-62
2023/08/02 05:12:54;;;;;;;13.98;2.97;;;;;;;18.00;73.33;99943.81;7389147;19;20023;-62
2023/08/02 05:15:21;;;;;;;9.57;3.03;;;;;;;17.89;73.65;99952.25;7388889;19;20018;-61
2023/08/02 05:17:48;;;;;;;9.75;3.22;;;;;;;17.84;73.76;99945.81;7389812;19;20043;-61
2023/08/02 05:20:15;;;;;;;8.90;3.42;;;;;;;17.85;73.63;99944.78;7387868;19;20018;-61
2023/08/02 05:22:42;;;;;;;13.10;3.95;;;;;;;17.78;73.75;99942.84;7383136;19;20041;-62
2023/08/02 05:25:09;;;;;;;9.45;3.85;;;;;;;17.87;73.66;99948.94;7386820;19;20015;-62
2023/08/02 05:27:36;;;;;;;9.90;3.50;;;;;;;17.89;73.51;99943.41;7390090;19;20043;-61
2023/08/02 05:30:03;;;;;;;12.85;3.08;;;;;;;17.85;73.52;99931.38;7387110;19;20014;-61
2023/08/02 05:32:30;;;;;;;9.45;2.85;;;;;;;17.89;73.85;99932.69;7385756;19;20540;-65
2023/08/02 05:34:57;;;;;;;10.05;2.95;;;;;;;17.95;73.16;99930.13;7386878;19;20512;-65
2023/08/02 05:37:27;;;;;;;11.00;3.03;;;;;;;17.94;73.64;99922.28;7389674;19;20014;-65
2023/08/02 05:39:55;;;;;;;9.63;3.25;;;;;;;18.02;73.16;99924.88;7390004;19;20019;-65
2023/08/02 05:42:22;;;;;;;11.40;2.88;;;;;;;18.09;72.90;99925.81;7388827;19;20018;-64
2023/08/02 05:44:48;;;;;;;12.27;2.90;;;;;;;18.12;72.79;99916.56;7389481;19;20025;-66
2023/08/02 05:47:16;;;;;;;10.23;2.95;;;;;;;18.14;72.69;99920.75;7389574;19;20018;-66
2023/08/02 05:49:44;;;;;;;10.25;2.90;;;;;;;18.13;72.73;99905.69;7389892;19;20039;-65
2023/08/02 05:52:11;;;;;;;10.63;3.08;;;;;;;18.09;72.57;99906.25;7389239;19;20019;-64
2023/08/02 05:54:39;;;;;;;10.98;3.10;;;;;;;18.07;72.52;99909.06;7388672;19;20022;-65
2023/08/02 05:57:09;;;;;;;13.43;3.53;;;;;;;18.09;72.71;99909.75;7389034;19;20026;-65
2023/08/02 05:59:38;;;;;;;8.65;3.42;;;;;;;17.97;72.96;99903.13;7389222;19;20018;-65
2023/08/02 06:02:06;;;;;;;14.15;3.70;;;;;;;17.93;73.30;99900.03;7388662;19;20026;-64
2023/08/02 06:04:36;;;;;;;13.57;5.03;;;;;;;18.00;72.83;99898.25;7387351;19;20015;-64
2023/08/02 06:07:04;;;;;;;9.95;4.68;;;;;;;17.99;72.71;99898.44;7389213;19;20363;-61
2023/08/02 06:09:32;;;;;;;13.50;4.72;;;;;;;17.97;73.32;99895.09;7389965;19;20040;-61
2023/08/02 06:11:59;;;;;;;12.98;4.90;;;;;;;18.08;73.08;99877.75;7388396;19;20014;-61
2023/08/02 06:14:27;;;;;;;15.85;4.68;;;;;;;18.20;72.76;99877.13;7388921;19;20018;-61
2023/08/02 06:16:54;;;;;;;13.98;4.88;;;;;;;18.17;72.85;99880.19;7388248;19;20098;-61
2023/08/02 06:19:22;;;;;;;13.77;4.43;;;;;;;18.23;72.35;99879.41;7388395;19;20498;-61
2023/08/02 06:21:49;;;;;;;14.27;4.32;;;;;;;18.17;72.49;99874.81;7388888;19;20021;-61
2023/08/02 06:24:17;;;;;;;14.13;4.88;;;;;;;18.15;72.80;99870.66;7386789;19;20018;-61
2023/08/02 06:26:45;;;;;;;11.95;4.32;;;;;;;18.09;72.74;99866.88;7389626;19;20480;-61
2023/08/02 06:29:13;;;;;;;12.13;3.60;;;;;;;18.07;72.93;99860.03;7396038;19;20029;-62
2023/08/02 06:31:40;;;;;;;12.77;4.10;;;;;;;18.14;73.15;99864.47;7395543;19;20078;-61
2023/08/02 06:34:09;;;;;;;10.63;3.50;;;;;;;18.25;72.33;99873.91;7395809;19;20142;-61
2023/08/02 06:36:38;;;;;;;11.25;4.28;;;;;;;18.42;71.81;99870.00;7394936;19;20018;-61
2023/08/02 06:39:05;;;;;;;12.75;3.40;;;;;;;18.45;71.86;99852.72;7395509;19;20018;-61
2023/08/02 06:41:34;;;;;;;12.07;3.67;;;;;;;18.39;72.14;99842.72;7394763;19;20021;-61
2023/08/02 06:44:03;;;;;;;12.60;3.72;;;;;;;18.44;72.07;99838.47;7390584;19;20019;-61
2023/08/02 06:46:30;;;;;;;9.73;3.30;;;;;;;18.50;71.96;99832.34;7397773;19;20019;-61
2023/08/02 06:48:58;;;;;;;10.48;3.08;;;;;;;18.58;71.89;99836.78;7392862;19;20767;-61
2023/08/02 06:51:25;;;;;;;10.63;3.83;;;;;;;18.62;71.38;99824.69;7392096;19;20029;-61
2023/08/02 06:53:57;;;;;;;11.23;3.50;;;;;;;18.71;71.16;99817.38;7393367;19;20030;-61
2023/08/02 06:56:25;;;;;;;9.70;3.15;;;;;;;18.70;71.71;99811.19;7389269;19;20037;-61
2023/08/02 06:58:52;;;;;;;8.23;3.35;;;;;;;18.68;71.69;99812.34;7393036;19;20078;-61
2023/08/02 07:01:22;;;;;;;7.63;2.90;;;;;;;18.61;71.71;99809.59;7394100;19;20022;-66
2023/08/02 07:03:50;;;;;;;10.10;3.28;;;;;;;18.67;71.96;99808.03;7390360;19;20480;-65
2023/08/02 07:06:21;;;;;;;10.13;3.25;;;;;;;18.66;71.80;99806.34;7393197;19;20086;-76
2023/08/02 07:08:49;;;;;;;9.07;3.40;;;;;;;18.63;71.38;99798.69;7399018;19;20011;-74
2023/08/02 07:11:18;;;;;;;13.15;3.90;;;;;;;18.78;71.29;99799.53;7398311;19;20019;-75
2023/08/02 07:17:49;;;;;;;9.68;3.30;;;;;;;18.78;70.77;99801.38;7394207;19;19994;-74
2023/08/02 07:20:09;;;;;;;8.88;3.10;;;;;;;18.81;71.15;99796.47;7396529;19;20022;-74
2023/08/02 07:22:44;;;;;;;8.80;3.17;;;;;;;18.93;70.73;99799.47;7391889;19;20015;-72
2023/08/02 07:25:12;;;;;;;7.47;3.28;;;;;;;18.97;70.49;99800.75;7394586;19;20018;-71
2023/08/02 07:27:39;;;;;;;9.52;3.10;;;;;;;19.07;70.33;99800.41;7397378;19;20031;-75
2023/08/02 07:30:07;;;;;;;11.13;3.22;;;;;;;19.07;70.33;99798.56;7394075;19;20412;-77
2023/08/02 07:51:29;;;;;;;9.98;3.60;;;;;;;19.11;70.21;99764.94;7390997;19;20396;-71
2023/08/02 07:53:57;;;;;;;8.25;2.90;;;;;;;19.25;70.06;99760.53;7390272;19;20022;-72
2023/08/02 07:56:25;;;;;;;10.68;3.33;;;;;;;19.49;69.63;99772.69;7391479;19;20014;-73
2023/08/02 07:58:52;;;;;;;8.57;3.20;;;;;;;19.59;68.76;99761.63;7392771;19;20028;-73
2023/08/02 08:01:19;;;;;;;7.53;2.70;;;;;;;19.67;67.99;99759.63;7392749;19;20019;-74
2023/08/02 08:04:06;;;;;;;8.73;3.08;;;;;;;19.53;68.88;99757.84;7390965;19;20026;-74
2023/08/02 08:06:53;;;;;;;9.75;3.10;;;;;;;19.32;69.01;99753.38;7391826;19;20036;-73
2023/08/02 08:09:40;;;;;;;8.60;2.80;;;;;;;19.36;69.02;99753.81;7392451;19;20136;-73
2023/08/02 08:12:27;;;;;;;8.75;2.40;;;;;;;19.36;69.44;99751.13;7391553;19;20035;-74
2023/08/02 08:15:14;;;;;;;10.13;2.83;;;;;;;19.45;69.29;99740.03;7391895;19;20018;-74
2023/08/02 08:18:00;;;;;;;7.57;2.70;;;;;;;19.51;68.74;99733.06;7391752;19;20022;-74
2023/08/02 08:20:47;;;;;;;9.05;3.00;;;;;;;19.46;69.13;99730.97;7391585;19;20018;-75
2023/08/02 08:23:35;;;;;;;6.90;2.80;;;;;;;19.49;69.63;99721.66;7389377;19;20481;-74
2023/08/02 08:26:22;;;;;;;10.70;2.78;;;;;;;19.47;70.37;99721.03;7391460;19;20015;-74
2023/08/02 08:29:09;;;;;;;8.10;2.80;;;;;;;19.40;70.19;99712.13;7391421;19;20026;-74
2023/08/02 08:31:56;;;;;;;7.68;2.63;;;;;;;19.26;70.20;99715.72;7391917;19;20049;-73
2023/08/02 08:34:43;;;;;;;8.48;2.60;;;;;;;19.15;70.33;99706.34;7389115;19;20032;-74
2023/08/02 08:37:29;;;;;;;8.23;2.60;;;;;;;19.27;70.24;99706.63;7391617;19;20018;-74
2023/08/02 08:40:17;;;;;;;7.93;2.78;;;;;;;19.34;70.38;99700.28;7391419;19;20032;-74
2023/08/02 08:42:53;;;;;;;9.35;2.83;;;;;;;19.31;70.18;99697.16;7384340;19;20041;-73
2023/08/02 08:45:23;;;;;;;8.38;2.45;;;;;;;19.27;69.83;99695.91;7390041;19;20048;-75
2023/08/02 08:47:56;;;;;;;7.88;2.60;;;;;;;19.32;69.43;99704.22;7391132;19;20021;-74
2023/08/02 08:50:25;;;;;;;7.10;2.60;;;;;;;19.37;70.11;99694.53;7388160;19;20019;-74
2023/08/02 08:53:18;;;;;;;7.47;2.80;;;;;;;19.42;69.50;99693.94;7389379;19;20010;-74
2023/08/02 08:56:05;;;;;;;8.80;2.70;;;;;;;19.31;69.50;99683.72;7390358;19;20082;-74
2023/08/02 08:58:53;;;;;;;7.70;2.72;;;;;;;19.35;68.97;99674.28;7391099;19;20021;-73
2023/08/02 09:01:40;;;;;;;7.28;2.42;;;;;;;19.46;68.84;99655.78;7389258;19;20484;-74
2023/08/02 09:04:30;;;;;;;8.48;2.80;;;;;;;19.61;68.24;99654.78;7386135;19;20006;-74
2023/08/02 09:07:17;;;;;;;7.78;2.95;;;;;;;19.70;67.55;99650.97;7395265;19;20492;-72
2023/08/02 09:10:05;;;;;;;7.38;2.70;;;;;;;19.65;68.07;99648.88;7389820;19;20010;-73
2023/08/02 09:12:51;;;;;;;8.85;3.33;;;;;;;19.52;68.57;99646.09;7388382;19;20054;-74
2023/08/02 09:15:39;;;;;;;5.93;2.63;;;;;;;19.47;69.00;99635.13;7389909;19;20414;-71
2023/08/02 09:18:46;;;;;;;10.73;3.10;;;;;;;19.55;68.55;99624.19;7390649;19;20046;-70
2023/08/02 09:21:33;;;;;;;6.88;2.58;;;;;;;19.51;68.71;99622.94;7390505;19;20040;-71
2023/08/02 09:24:31;;;;;;;7.65;3.17;;;;;;;19.52;68.75;99621.91;7387796;19;20015;-71
2023/08/02 09:26:58;;;;;;;8.13;3.10;;;;;;;19.44;68.64;99622.91;7393239;19;20010;-71
2023/08/02 09:29:48;;;;;;;7.50;3.00;;;;;;;19.45;68.88;99618.34;7394662;19;20025;-72
2023/08/02 09:32:16;;;;;;;6.75;2.85;;;;;;;19.31;69.93;99613.94;7388332;19;20803;-73
2023/08/02 09:34:45;;;;;;;9.40;3.42;;;;;;;19.27;70.09;99615.34;7389492;19;20025;-73
2023/08/02 09:37:13;;;;;;;6.75;3.35;;;;;;;19.28;69.94;99606.31;7389664;19;20027;-72
2023/08/02 09:39:51;;;;;;;7.90;3.30;;;;;;;19.21;70.17;99598.19;7388915;19;20029;-72
2023/08/02 09:42:25;;;;;;;7.28;3.30;;;;;;;19.17;70.51;99586.19;7389109;19;20018;-71
2023/08/02 09:45:01;;;;;;;7.60;3.20;;;;;;;19.14;70.26;99565.13;7388770;19;20047;-71
2023/08/02 09:47:28;;;;;;;9.73;3.42;;;;;;;19.15;70.23;99553.34;7389957;19;20038;-71
2023/08/02 09:50:09;;;;;;;7.30;2.72;;;;;;;19.22;70.05;99532.75;7388855;19;20010;-70
2023/08/02 09:52:40;;;;;;;7.35;2.72;;;;;;;19.17;70.40;99544.09;7388672;19;20019;-71
2023/08/02 09:55:08;;;;;;;5.75;2.90;;;;;;;19.13;70.69;99548.19;7391332;19;20031;-71
2023/08/02 09:57:35;;;;;;;8.85;3.47;;;;;;;19.18;70.22;99544.91;7392111;19;20014;-70
2023/08/02 10:00:07;;;;;;;7.53;2.90;;;;;;;19.20;70.80;99550.91;7389914;19;20023;-70
2023/08/02 10:02:35;;;;;;;5.40;2.63;;;;;;;19.15;70.94;99529.19;7393976;19;20022;-71
2023/08/02 10:05:03;;;;;;;5.95;3.10;;;;;;;19.13;71.24;99517.84;7394513;19;20029;-70
2023/08/02 10:07:52;;;;;;;10.15;3.30;;;;;;;19.12;71.73;99513.50;7396286;19;20017;-70
2023/08/02 10:10:28;;;;;;;7.85;3.28;;;;;;;19.09;73.08;99504.00;7399619;19;20522;-70
2023/08/02 10:13:01;;;;;;;6.88;2.80;;;;;;;19.22;72.76;99485.25;7397891;19;20035;-70
2023/08/02 10:15:28;;;;;;;8.23;3.38;;;;;;;19.39;73.11;99487.59;7394722;19;20018;-70
2023/08/02 10:17:58;;;;;;;6.40;2.90;;;;;;;19.59;72.34;99487.66;7398701;19;20097;-69
2023/08/02 10:20:25;;;;;;;8.05;3.35;;;;;;;19.70;72.54;99479.88;7393483;19;20510;-69
2023/08/02 10:22:54;;;;;;;7.07;2.80;;;;;;;19.78;72.39;99480.72;7392293;19;20145;-69
2023/08/02 10:25:23;;;;;;;8.50;3.05;;;;;;;19.83;72.04;99483.59;7395092;19;20022;-69
2023/08/02 10:27:52;;;;;;;7.70;2.95;;;;;;;19.86;72.13;99494.75;7393702;19;20011;-70
2023/08/02 10:30:20;;;;;;;8.77;2.72;;;;;;;19.81;72.06;99488.38;7395874;19;20095;-70
2023/08/02 10:33:12;;;;;;;6.15;2.55;;;;;;;19.81;72.48;99488.38;7393124;19;20011;-70
2023/08/02 10:35:58;;;;;;;6.82;2.58;;;;;;;19.72;72.41;99482.34;7392704;19;20035;-69
2023/08/02 10:38:28;;;;;;;6.57;2.45;;;;;;;19.62;73.11;99485.44;7394895;19;20035;-70
2023/08/02 10:41:03;;;;;;;6.15;2.45;;;;;;;19.54;72.87;99492.81;7394292;19;20027;-69
2023/08/02 10:43:31;;;;;;;6.35;2.40;;;;;;;19.56;73.35;99488.06;7396947;19;20015;-69
2023/08/02 10:46:15;;;;;;;7.22;2.53;;;;;;;19.49;73.19;99488.03;7391473;19;20014;-70
2023/08/02 10:48:42;;;;;;;14.02;2.97;;;;;;;19.20;73.50;99484.63;7394406;19;20015;-70
2023/08/02 10:51:33;;;;;;;8.40;3.05;;;;;;;19.19;73.24;99469.56;7394848;19;20484;-70
2023/08/02 10:54:12;;;;;;;7.80;2.67;;;;;;;19.23;73.53;99467.28;7392064;19;20022;-71
2023/08/02 10:56:51;;;;;;;5.72;2.80;;;;;;;19.23;74.18;99472.66;7394388;19;20484;-70
2023/08/02 10:59:22;;;;;;;8.38;2.90;;;;;;;19.19;74.67;99479.47;7394271;19;20068;-70
2023/08/02 11:02:11;;;;;;;6.88;2.58;;;;;;;19.20;75.17;99479.28;7392814;19;20051;-70
2023/08/02 11:04:45;;;;;;;5.28;2.65;;;;;;;19.18;75.46;99470.56;7392657;19;20022;-70
2023/08/02 11:07:20;;;;;;;;;;;;;;;19.03;77.24;99471.75;7394934;19;20050;-70
2023/08/02 11:09:53;;;;;;;6.25;2.40;;;;;;;18.97;77.09;99462.66;7396352;19;19919;-70
2023/08/02 11:12:21;;;;;;;7.03;2.70;;;;;;;19.08;76.90;99462.09;7394586;19;20048;-70
2023/08/02 11:14:51;;;;;;;7.18;2.58;;;;;;;19.22;76.65;99442.31;7393414;19;20022;-70
2023/08/02 11:17:20;;;;;;;7.10;2.53;;;;;;;19.45;76.34;99439.28;7398487;19;20495;-71
2023/08/02 11:19:53;;;;;;;6.22;2.72;;;;;;;19.56;76.00;99432.47;7394667;19;20011;-71
2023/08/02 11:22:23;;;;;;;6.50;2.90;;;;;;;19.47;76.47;99409.56;7392665;19;20026;-71
2023/08/02 11:24:53;;;;;;;6.93;2.63;;;;;;;19.43;76.68;99411.00;7390711;19;20018;-71
2023/08/02 11:27:22;;;;;;;8.13;2.45;;;;;;;19.37;76.75;99406.41;7391382;19;20022;-71
2023/08/02 11:30:00;;;;;;;8.07;2.85;;;;;;;19.34;76.94;99396.91;7393529;19;20023;-70
2023/08/02 11:32:30;;;;;;;5.88;2.38;;;;;;;19.31;77.28;99389.28;7392243;19;20047;-70
2023/08/02 11:34:58;;;;;;;5.13;2.60;;;;;;;19.25;77.05;99382.03;7391004;19;20011;-72
2023/08/02 11:37:26;;;;;;;7.88;2.70;;;;;;;19.21;77.54;99384.28;7391773;19;20010;-71
2023/08/02 11:39:55;;;;;;;5.88;2.60;;;;;;;19.26;77.59;99383.69;7393987;19;20048;-71
2023/08/02 11:42:27;;;;;;;6.47;2.30;;;;;;;19.23;77.70;99381.38;7394068;19;20091;-70
2023/08/02 11:44:54;;;;;;;4.55;2.38;;;;;;;19.14;77.77;99361.16;7391154;19;20042;-70
2023/08/02 11:47:36;;;;;;;6.28;2.50;;;;;;;19.12;77.87;99353.31;7393270;19;20015;-72
2023/08/02 11:50:03;;;;;;;7.28;2.85;;;;;;;19.08;78.00;99345.84;7393237;19;20124;-72
2023/08/02 11:52:33;;;;;;;6.03;2.72;;;;;;;19.01;78.35;99340.50;7392059;19;20018;-73
2023/08/02 11:55:01;;;;;;;5.20;2.58;;;;;;;19.02;78.59;99335.94;7389817;19;20346;-71
2023/08/02 11:57:29;;;;;;;10.50;2.80;;;;;;;19.06;78.54;99338.00;7391786;19;20488;-69
2023/08/02 11:59:57;;;;;;;5.88;2.45;;;;;;;19.08;78.37;99332.44;7392046;19;20510;-69
2023/08/02 12:02:31;;;;;;;6.05;3.00;;;;;;;19.07;78.65;99336.16;7391900;19;20018;-70
2023/08/02 12:05:05;;;;;;;5.43;2.63;;;;;;;19.00;79.18;99328.06;7391219;19;20015;-70
2023/08/02 12:07:34;;;;;;;5.30;2.70;;;;;;;19.01;80.04;99313.66;7392231;19;20025;-70
2023/08/02 12:10:06;;;;;;;6.35;2.55;;;;;;;18.99;80.00;99311.16;7392742;19;20010;-70